• Join FlightAware (Why Join?)
  • Login
  • US Flag 
07:24AM EDT


 

Airport Tracker/Info


-or-


 

Live Flight TrackerFlight Track Log ✈ CSC8711 ✈ 26-Apr-2014 ✈ ZUUU / CTU - ZHYC / YIH

Flight Track Log - Related Links

Times and Time Zones

All times are in EDT time to prevent confusion due to time zone crossing. See the CSC8711 flight status page for this flight to view local times or setup timezone preferences in your user account.

Time Position Orientation Groundspeed Altitude Reporting Facility
EDT Latitude Longitude Course Direction KTS MPH feet Rate Location/Type
02:28AM 30.6063 104.6713 87° East  Level Estimated
02:29AM 30.6105 104.7920 88° East  Level Estimated
02:30AM 30.6146 104.9128 88° East  Level Estimated
02:31AM 30.6186 105.0335 88° East  Level Estimated
02:32AM 30.6225 105.1543 88° East  Level Estimated
02:33AM 30.6263 105.2751 88° East  Level Estimated
02:34AM 30.6300 105.3959 88° East  Level Estimated
02:35AM 30.6335 105.5167 88° East  Level Estimated
02:36AM 30.6370 105.6375 88° East  Level Estimated
02:37AM 30.6403 105.7583 88° East  Level Estimated
02:38AM 30.6436 105.8791 88° East  Level Estimated
02:39AM 30.6467 105.9999 88° East  Level Estimated
02:40AM 30.6497 106.1208 88° East  Level Estimated
02:41AM 30.6526 106.2416 88° East  Level Estimated
02:42AM 30.6553 106.3625 88° East  Level Estimated
02:43AM 30.6580 106.4833 88° East  Level Estimated
02:44AM 30.6606 106.6042 89° East  Level Estimated
02:45AM 30.6630 106.7251 89° East  Level Estimated
02:46AM 30.6653 106.8459 89° East  Level Estimated
02:47AM 30.6676 106.9668 89° East  Level Estimated
02:48AM 30.6697 107.0877 89° East  Level Estimated
02:49AM 30.6717 107.2086 89° East  Level Estimated
02:50AM 30.6735 107.3295 89° East  Level Estimated
02:51AM 30.6753 107.4504 89° East  Level Estimated
02:52AM 30.6770 107.5713 89° East  Level Estimated
02:53AM 30.6785 107.6922 89° East  Level Estimated
02:54AM 30.6800 107.8131 89° East  Level Estimated
02:55AM 30.6813 107.9341 89° East  Level Estimated
02:56AM 30.6825 108.0550 89° East  Level Estimated
02:57AM 30.6836 108.1759 89° East  Level Estimated
02:58AM 30.6846 108.2969 89° East  Level Estimated
02:59AM 30.6855 108.4178 89° East  Level Estimated
03:00AM 30.6863 108.5387 90° East  Level Estimated
03:01AM 30.6869 108.6597 90° East  Level Estimated
03:02AM 30.6874 108.7806 90° East  Level Estimated
03:03AM 30.6879 108.9015 90° East  Level Estimated
03:04AM 30.6882 109.0225 90° East  Level Estimated
03:05AM 30.6884 109.1434 90° East  Level Estimated
03:06AM 30.6885 109.2643 90° East  Level Estimated
03:07AM 30.6885 109.3853 90° East  Level Estimated
03:08AM 30.6883 109.5062 90° East  Level Estimated
03:09AM 30.6881 109.6272 90° East  Level Estimated
03:10AM 30.6877 109.7481 90° East  Level Estimated
03:11AM 30.6873 109.8690 90° East  Level Estimated
03:12AM 30.6867 109.9900 90° East  Level Estimated
03:13AM 30.6860 110.1109 90° East  Level Estimated
03:14AM 30.6852 110.2318 90° East  Level Estimated
03:15AM 30.6843 110.3528 90° East  Level Estimated
03:16AM 30.6833 110.4737 91° East  Level Estimated
03:17AM 30.6821 110.5946 91° East  Level Estimated
03:18AM 30.6809 110.7155 91° East  Level Estimated
03:19AM 30.6795 110.8364 91° East  Level Estimated
03:20AM 30.6780 110.9574 91° East  Level Estimated
03:21AM 30.6764 111.0783 91° East  Level Estimated
03:22AM 30.6747 111.1992 91° East  Level Estimated
03:23AM 30.6729 111.3201 91° East  Level Estimated
03:24AM 30.6710 111.4410 91° East  Level Estimated
03:25AM 30.6710 111.4410 91° East  Level Estimated
03:26AM 30.6710 111.4410 North  Level Estimated
03:27AM 30.6710 111.4410 North  Level Estimated
03:28AM 30.6710 111.4410 North  Level Estimated
03:29AM 30.6710 111.4410 North  Level Estimated
03:30AM 30.6710 111.4410 North  Level Estimated
03:31AM 30.6710 111.4410 North  Level Estimated
03:32AM 30.6710 111.4410 North  Level Estimated
03:33AM 30.6710 111.4410 North  Level Estimated
03:34AM 30.6710 111.4410 North  Level Estimated